Time;durP1;ratioP1;P1;durP2;ratioP2;P2;SDS_P1;SDS_P2;PMS_P1;PMS_P2;Temp;Humidity;BMP_temperature;BMP_pressure;BME280_temperature;BME280_humidity;BME280_pressure;Samples;Min_cycle;Max_cycle;Signal;HPM_P1;HPM_P2
2022/09/04 00:01:43;;;;;;;2.25;1.33;;;;;;;;;;10421896;28;20242;-75
2022/09/04 00:07:12;;;;;;;1.45;1.20;;;;;;;;;;10421583;28;20539;-75
2022/09/04 00:12:37;;;;;;;1.95;1.10;;;;;;;;;;10425043;28;20222;-79
2022/09/04 00:18:02;;;;;;;1.65;1.40;;;;;;;;;;10429221;28;20231;-80
2022/09/04 00:23:36;;;;;;;1.27;1.17;;;;;;;;;;10433847;28;20276;-75
2022/09/04 00:29:00;;;;;;;2.00;1.38;;;;;;;;;;10433875;28;20511;-75
2022/09/04 00:34:44;;;;;;;3.85;1.35;;;;;;;;;;10394913;28;20518;-76
2022/09/04 00:40:37;;;;;;;2.58;1.38;;;13.60;99.90;;;;;;10551352;28;20286;-75
2022/09/04 00:46:13;;;;;;;3.03;1.20;;;;;;;;;;10496663;28;20498;-75
2022/09/04 00:51:50;;;;;;;1.33;0.90;;;;;;;;;;10548389;28;20203;-75
2022/09/04 00:57:32;;;;;;;2.50;1.03;;;;;;;;;;10496644;28;20214;-76
2022/09/04 01:03:00;;;;;;;1.63;1.05;;;;;;;;;;10529050;28;20289;-75
2022/09/04 01:08:25;;;;;;;3.70;1.15;;;;;;;;;;10544479;28;20557;-74
2022/09/04 01:13:50;;;;;;;1.40;1.15;;;;;;;;;;10514142;28;20528;-75
2022/09/04 01:19:30;;;;;;;2.50;1.00;;;;;;;;;;10527292;28;20230;-74
2022/09/04 01:25:11;;;;;;;1.42;1.17;;;;;;;;;;10521681;28;20257;-75
2022/09/04 01:30:58;;;;;;;0.88;0.73;;;;;;;;;;10521416;28;20217;-78
2022/09/04 01:36:21;;;;;;;2.35;1.33;;;;;;;;;;10425812;28;20222;-74
2022/09/04 01:41:59;;;;;;;1.83;0.80;;;;;;;;;;10410006;28;20233;-74
2022/09/04 01:47:25;;;;;;;1.30;0.90;;;;;;;;;;10406896;28;20223;-77
2022/09/04 01:53:04;;;;;;;2.40;1.08;;;;;;;;;;10432521;28;20224;-77
2022/09/04 01:58:25;;;;;;;1.03;0.90;;;;;;;;;;10434265;28;20242;-74
2022/09/04 02:03:49;;;;;;;1.42;1.10;;;;;;;;;;10413118;28;20341;-78
2022/09/04 02:09:30;;;;;;;0.63;0.63;;;;;;;;;;10416871;28;20213;-75
2022/09/04 02:15:02;;;;;;;0.68;0.68;;;;;;;;;;10522895;28;20203;-75
2022/09/04 02:20:27;;;;;;;1.17;0.90;;;;;;;;;;10555341;28;20249;-75
2022/09/04 02:25:53;;;;;;;1.20;0.68;;;;;;;;;;10500788;28;20424;-77
2022/09/04 02:31:37;;;;;;;1.10;1.00;;;;;;;;;;10553869;28;20214;-78
2022/09/04 02:36:58;;;;;;;1.52;0.75;;;;;;;;;;10538816;28;20261;-78
2022/09/04 02:42:29;;;;;;;0.80;0.75;;;;;;;;;;10534810;28;20226;-75
2022/09/04 02:47:54;;;;;;;1.67;0.70;;;;;;;;;;10505528;28;20205;-81
2022/09/04 02:53:25;;;;;;;1.63;0.73;;;;;;;;;;10551493;28;20496;-81
2022/09/04 02:59:06;;;;;;;3.42;0.70;;;;;;;;;;10530482;28;20456;-82
2022/09/04 03:04:34;;;;;;;1.48;0.95;;;;;;;;;;10520607;28;20209;-81
2022/09/04 03:10:05;;;;;;;2.58;1.00;;;;;;;;;;10527527;28;20198;-81
2022/09/04 03:15:38;;;;;;;1.17;0.80;;;;;;;;;;10533411;28;20208;-82
2022/09/04 03:21:05;;;;;;;1.30;1.00;;;;;;;;;;10541533;28;20271;-80
2022/09/04 03:26:26;;;;;;;1.60;0.87;;;;;;;;;;10489417;28;20245;-81
2022/09/04 03:32:02;;;;;;;2.50;0.77;;;;;;;;;;10543115;28;20796;-81
2022/09/04 03:37:48;;;;;;;1.80;0.82;;;;;;;;;;10533654;28;20202;-81
2022/09/04 03:43:16;;;;;;;1.00;0.90;;;;;;;;;;10550739;28;20226;-78
2022/09/04 03:48:50;;;;;;;2.33;1.10;;;;;;;;;;10515402;28;20205;-79
2022/09/04 03:54:32;;;;;;;3.10;1.10;;;;;;;;;;10496095;28;20201;-77
2022/09/04 04:00:09;;;;;;;1.80;1.10;;;;;;;;;;10556097;28;20410;-75
2022/09/04 04:05:41;;;;;;;2.20;1.00;;;;;;;;;;10499797;28;20237;-75
2022/09/04 04:11:23;;;;;;;5.63;2.40;;;;;;;;;;10523436;28;20535;-74
2022/09/04 04:17:17;;;;;;;6.70;2.83;;;12.50;99.90;;;;;;10480054;28;20234;-75
2022/09/04 04:22:51;;;;;;;4.17;2.10;;;12.50;99.90;;;;;;10489602;28;20222;-76
2022/09/04 04:28:31;;;;;;;1.73;1.20;;;;;;;;;;10493291;28;20273;-81
2022/09/04 04:34:10;;;;;;;1.33;1.13;;;;;;;;;;10493615;28;20202;-78
2022/09/04 04:39:38;;;;;;;1.97;1.33;;;;;;;;;;10507055;28;20245;-76
2022/09/04 04:51:02;;;;;;;4.63;1.30;;;;;;;;;;10508792;28;20495;-80
2022/09/04 04:56:44;;;;;;;1.10;0.90;;;;;;;;;;10496074;28;20208;-76
2022/09/04 05:02:24;;;;;;;1.33;1.10;;;;;;;;;;10537037;28;20260;-76
2022/09/04 05:08:06;;;;;;;3.17;1.63;;;;;;;;;;10542255;28;20527;-76
2022/09/04 05:13:55;;;;;;;5.40;2.25;;;;;;;;;;10523503;28;20239;-76
2022/09/04 05:19:19;;;;;;;16.13;4.00;;;;;;;;;;10548264;28;20234;-76
2022/09/04 05:25:05;;;;;;;14.00;4.83;;;;;;;;;;10533658;28;20456;-76
2022/09/04 05:30:53;;;;;;;6.85;3.25;;;;;;;;;;10556173;28;20199;-80
2022/09/04 05:36:24;;;;;;;5.85;2.38;;;;;;;;;;10451760;28;20223;-80
2022/09/04 05:42:04;;;;;;;6.95;3.08;;;;;;;;;;10387837;28;20232;-78
2022/09/04 05:47:26;;;;;;;4.63;2.60;;;;;;;;;;10424505;28;20265;-76
2022/09/04 05:52:57;;;;;;;2.50;2.08;;;;;;;;;;10454589;28;20238;-76
2022/09/04 05:58:32;;;;;;;4.43;1.95;;;;;;;;;;10444692;28;20219;-76
2022/09/04 06:04:12;;;;;;;1.75;1.40;;;;;;;;;;10465343;28;20221;-73
2022/09/04 06:09:39;;;;;;;2.17;1.73;;;;;;;;;;10437940;28;20439;-75
2022/09/04 06:15:19;;;;;;;1.85;1.67;;;;;;;;;;10550826;28;20223;-74
2022/09/04 06:20:41;;;;;;;2.97;1.70;;;;;;;;;;10546317;28;20424;-79
2022/09/04 06:26:14;;;;;;;2.30;1.27;;;;;;;;;;10540259;28;20235;-77
2022/09/04 06:31:53;;;;;;;3.17;1.25;;;;;;;;;;10515268;28;20269;-77
2022/09/04 06:37:14;;;;;;;1.52;0.90;;;;;;;;;;10529073;28;20419;-78
2022/09/04 06:42:39;;;;;;;1.20;0.73;;;20.10;25.70;;;;;;10546089;28;20587;-78
2022/09/04 06:48:01;;;;;;;1.08;0.70;;;20.10;25.80;;;;;;10492852;28;20221;-78
2022/09/04 06:53:47;;;;;;;0.95;0.68;;;20.70;21.10;;;;;;10555022;28;20522;-77
2022/09/04 06:59:26;;;;;;;1.15;0.70;;;21.50;17.90;;;;;;10410631;28;20236;-76
2022/09/04 07:05:09;;;;;;;3.22;0.70;;;21.90;14.70;;;;;;10421604;28;20567;-81
2022/09/04 07:10:46;;;;;;;1.85;0.80;;;21.90;15.00;;;;;;10435763;28;20503;-77
2022/09/04 07:16:37;;;;;;;3.03;0.70;;;22.20;13.40;;;;;;10427776;28;20243;-75
2022/09/04 07:22:15;;;;;;;2.38;0.75;;;22.30;11.40;;;;;;10429058;28;20236;-76
2022/09/04 07:28:11;;;;;;;1.23;0.70;;;22.40;11.40;;;;;;10424988;28;20251;-77
2022/09/04 07:33:39;;;;;;;0.73;0.70;;;;;;;;;;10282566;28;20213;-77
2022/09/04 07:39:28;;;;;;;2.42;0.90;;;23.60;16.50;;;;;;10329824;28;20525;-80
2022/09/04 07:45:02;;;;;;;2.30;0.60;;;23.90;8.90;;;;;;10326133;28;20194;-76
2022/09/04 07:51:10;;;;;;;2.65;1.30;;;24.10;8.60;;;;;;10344065;28;20248;-77
2022/09/04 07:57:09;;;;;;;1.05;0.95;;;24.40;7.90;;;;;;10345981;28;20219;-77
2022/09/04 08:02:37;;;;;;;1.83;1.17;;;;;;;;;;10344898;28;20336;-78
2022/09/04 08:08:10;;;;;;;1.17;0.80;;;25.60;6.30;;;;;;10438196;28;20204;-77
2022/09/04 08:13:42;;;;;;;2.65;1.00;;;;;;;;;;10523948;28;20279;-75
2022/09/04 08:19:03;;;;;;;2.28;0.82;;;26.50;4.00;;;;;;10492894;28;20242;-77
2022/09/04 08:24:36;;;;;;;0.90;0.80;;;26.20;4.30;;;;;;10508675;28;20567;-77
2022/09/04 08:30:10;;;;;;;0.82;0.82;;;26.40;4.60;;;;;;10544032;28;20419;-81
2022/09/04 08:35:52;;;;;;;0.70;0.70;;;27.00;3.70;;;;;;10510426;28;20211;-80
2022/09/04 08:41:44;;;;;;;0.75;0.60;;;27.20;3.00;;;;;;10426375;28;20236;-81
2022/09/04 08:47:12;;;;;;;0.45;0.45;;;27.20;3.10;;;;;;10427435;28;20208;-77
2022/09/04 08:53:03;;;;;;;3.63;0.68;;;27.80;1.60;;;;;;10453166;28;20207;-77
2022/09/04 08:58:49;;;;;;;4.25;1.08;;;28.20;1.00;;;;;;10449346;28;20219;-77
2022/09/04 09:04:22;;;;;;;1.08;0.60;;;28.00;1.10;;;;;;10440988;28;20211;-79
2022/09/04 09:09:55;;;;;;;1.35;0.85;;;27.50;1.30;;;;;;10447050;28;20213;-78
2022/09/04 09:15:34;;;;;;;4.30;0.80;;;27.70;1.60;;;;;;10464836;28;20264;-78
2022/09/04 09:21:10;;;;;;;1.50;0.63;;;27.40;1.00;;;;;;10523520;28;20236;-79
2022/09/04 09:26:56;;;;;;;1.25;0.75;;;27.90;1.00;;;;;;10484030;28;20219;-77
2022/09/04 09:32:27;;;;;;;1.55;0.60;;;28.50;1.00;;;;;;10506345;28;20211;-78
2022/09/04 09:38:01;;;;;;;0.60;0.60;;;28.90;1.00;;;;;;10515219;28;20195;-81
2022/09/04 09:43:53;;;;;;;3.33;0.60;;;28.40;1.00;;;;;;10537898;28;20430;-78
2022/09/04 09:49:40;;;;;;;1.10;0.70;;;28.20;1.00;;;;;;10499988;28;20210;-83
2022/09/04 09:55:10;;;;;;;1.58;1.20;;;28.20;1.00;;;;;;10549794;28;20201;-77
2022/09/04 10:01:13;;;;;;;1.23;0.80;;;28.90;1.00;;;;;;10524491;28;20222;-82
2022/09/04 10:07:13;;;;;;;1.02;0.63;;;29.70;1.00;;;;;;10429003;28;20323;-81
2022/09/04 10:13:08;;;;;;;1.02;0.70;;;30.00;1.00;;;;;;10311974;28;20214;-80
2022/09/04 10:18:58;;;;;;;2.85;0.60;;;29.40;1.00;;;;;;10312121;28;20210;-83
2022/09/04 10:24:36;;;;;;;1.42;0.68;;;29.50;1.00;;;;;;10311585;28;20234;-83
2022/09/04 10:30:09;;;;;;;0.50;0.50;;;29.60;1.00;;;;;;10311522;28;20289;-82
2022/09/04 10:36:05;;;;;;;1.85;0.60;;;30.20;1.00;;;;;;10296292;28;20214;-79
2022/09/04 10:41:50;;;;;;;1.20;0.70;;;30.60;1.00;;;;;;10191252;29;20614;-78
2022/09/04 10:47:14;;;;;;;2.95;0.93;;;29.80;1.00;;;;;;10267080;28;20213;-77
2022/09/04 10:53:09;;;;;;;1.42;0.60;;;29.20;1.00;;;;;;10327284;28;20275;-77
2022/09/04 10:58:51;;;;;;;0.75;0.70;;;29.00;1.00;;;;;;10380496;28;20217;-83
2022/09/04 11:04:26;;;;;;;0.47;0.43;;;29.70;1.00;;;;;;10358120;28;20511;-80
2022/09/04 11:10:05;;;;;;;0.80;0.50;;;29.80;1.00;;;;;;10369533;28;20252;-81
2022/09/04 11:15:56;;;;;;;1.90;0.50;;;29.50;1.00;;;;;;10418123;28;20244;-80
2022/09/04 11:21:40;;;;;;;0.50;0.50;;;29.60;99.90;;;;;;10546582;28;20446;-82
2022/09/04 11:27:20;;;;;;;2.83;0.30;;;30.20;1.00;;;;;;10503361;28;20264;-82
2022/09/04 11:32:55;;;;;;;0.73;0.65;;;29.90;1.00;;;;;;10520971;28;20278;-77
2022/09/04 11:38:27;;;;;;;1.20;0.80;;;29.70;1.00;;;;;;10518650;28;20270;-80
2022/09/04 11:44:14;;;;;;;0.65;0.50;;;30.10;1.00;;;;;;10524462;28;20223;-82
2022/09/04 11:50:02;;;;;;;0.50;0.50;;;30.50;1.00;;;;;;10502652;28;20203;-78
2022/09/04 11:55:32;;;;;;;0.60;0.60;;;30.30;1.00;;;;;;10479627;28;20222;-78
2022/09/04 12:01:15;;;;;;;0.30;0.30;;;30.00;1.00;;;;;;10524666;28;20227;-79
2022/09/04 12:07:14;;;;;;;1.05;0.60;;;29.40;1.00;;;;;;10539466;28;20203;-81
2022/09/04 12:13:02;;;;;;;0.73;0.52;;;29.50;99.90;;;;;;10522113;28;20202;-82
2022/09/04 12:18:46;;;;;;;0.73;0.73;;;29.60;1.00;;;;;;10530957;28;20213;-78
2022/09/04 12:24:28;;;;;;;1.90;0.60;;;29.50;1.00;;;;;;10509718;28;20419;-82
2022/09/04 12:30:22;;;;;;;1.25;0.52;;;29.60;1.00;;;;;;10523769;28;20191;-81
2022/09/04 12:36:13;;;;;;;1.33;0.50;;;29.30;1.00;;;;;;10524026;28;20565;-82
2022/09/04 12:41:53;;;;;;;2.17;0.80;;;29.10;99.90;;;;;;10371715;28;20237;-81
2022/09/04 12:47:33;;;;;;;3.30;0.70;;;28.90;1.00;;;;;;10340631;28;20202;-82
2022/09/04 12:53:14;;;;;;;2.08;0.73;;;28.50;1.00;;;;;;10367890;28;20213;-80
2022/09/04 12:58:51;;;;;;;0.40;0.40;;;28.10;1.00;;;;;;10396883;28;20229;-78
2022/09/04 13:04:30;;;;;;;0.70;0.60;;;27.80;1.00;;;;;;10397109;28;20500;-77
2022/09/04 13:10:13;;;;;;;1.35;0.55;;;27.80;1.00;;;;;;10395523;28;20217;-76
2022/09/04 13:15:51;;;;;;;3.17;0.70;;;27.60;99.90;;;;;;10417297;28;20415;-77
2022/09/04 13:21:54;;;;;;;1.10;0.90;;;27.50;99.90;;;;;;10494257;28;20227;-77
2022/09/04 13:27:27;;;;;;;0.70;0.63;;;27.20;99.90;;;;;;10510641;28;20423;-77
2022/09/04 13:33:15;;;;;;;4.00;0.80;;;27.00;1.00;;;;;;10482288;28;20353;-81
2022/09/04 13:38:57;;;;;;;1.27;0.60;;;26.50;1.00;;;;;;10480659;28;20268;-80
2022/09/04 13:44:21;;;;;;;0.55;0.55;;;26.10;1.00;;;;;;10481303;28;20196;-76
2022/09/04 13:50:07;;;;;;;0.40;0.40;;;25.90;1.00;;;;;;10480521;28;20192;-81
2022/09/04 13:55:38;;;;;;;2.50;0.60;;;25.70;1.00;;;;;;10513203;28;20248;-81
2022/09/04 14:01:01;;;;;;;3.33;0.60;;;;;;;;;;10521808;28;20227;-80
2022/09/04 14:06:25;;;;;;;1.15;0.60;;;25.00;1.00;;;;;;10504148;28;20199;-82
2022/09/04 14:11:56;;;;;;;0.85;0.60;;;24.80;1.00;;;;;;10562097;28;20194;-77
2022/09/04 14:17:25;;;;;;;0.50;0.50;;;24.50;1.00;;;;;;10563542;28;20261;-75
2022/09/04 14:23:06;;;;;;;0.60;0.55;;;24.30;1.00;;;;;;10541880;28;20231;-75
2022/09/04 14:28:47;;;;;;;4.13;0.90;;;23.40;99.90;;;;;;10479636;28;20192;-78
2022/09/04 14:34:38;;;;;;;1.23;0.60;;;23.20;99.90;;;;;;10478193;28;20200;-82
2022/09/04 14:40:20;;;;;;;0.50;0.50;;;23.00;1.00;;;;;;10478048;28;20405;-80
2022/09/04 14:46:03;;;;;;;0.80;0.70;;;23.00;99.90;;;;;;10478104;28;20215;-76
2022/09/04 14:51:24;;;;;;;2.45;0.80;;;22.80;99.90;;;;;;10477481;28;20214;-78
2022/09/04 14:56:55;;;;;;;0.30;0.28;;;22.60;1.00;;;;;;10463550;28;20414;-76
2022/09/04 15:02:27;;;;;;;0.45;0.40;;;22.50;1.00;;;;;;10510697;28;20226;-77
2022/09/04 15:07:53;;;;;;;0.60;0.40;;;22.40;1.00;;;;;;10521568;28;20234;-77
2022/09/04 15:13:19;;;;;;;0.85;0.50;;;22.20;1.00;;;;;;10518959;28;20485;-76
2022/09/04 15:18:49;;;;;;;1.10;1.00;;;22.10;1.00;;;;;;10518456;28;20198;-79
2022/09/04 15:24:18;;;;;;;1.00;0.90;;;22.00;1.00;;;;;;10497704;28;20550;-81
2022/09/04 15:29:57;;;;;;;1.13;0.90;;;21.80;1.00;;;;;;10462601;28;20499;-81
2022/09/04 15:35:29;;;;;;;4.50;1.13;;;21.70;1.00;;;;;;10477562;28;20226;-77
2022/09/04 15:41:03;;;;;;;1.35;0.90;;;21.50;1.00;;;;;;10476786;28;20518;-77
2022/09/04 15:46:42;;;;;;;1.55;0.90;;;21.30;1.00;;;;;;10490925;28;20195;-77
2022/09/04 15:52:41;;;;;;;1.17;0.70;;;21.10;1.00;;;;;;10480296;28;20439;-78
2022/09/04 15:58:28;;;;;;;3.22;1.20;;;20.90;1.00;;;;;;10518737;28;20191;-76
2022/09/04 16:04:06;;;;;;;1.30;1.13;;;20.80;1.00;;;;;;10518263;28;20432;-76
2022/09/04 16:09:55;;;;;;;1.98;0.82;;;20.80;1.00;;;;;;10525983;28;20187;-76
2022/09/04 16:15:23;;;;;;;1.60;0.93;;;20.70;1.00;;;;;;10517253;28;20203;-76
2022/09/04 16:20:57;;;;;;;2.78;1.00;;;20.50;1.00;;;;;;10517210;28;20286;-81
2022/09/04 16:26:38;;;;;;;2.42;1.10;;;20.30;1.00;;;;;;10478580;28;20275;-81
2022/09/04 16:32:00;;;;;;;1.30;0.98;;;20.50;1.00;;;;;;10476358;28;20204;-76
2022/09/04 16:37:37;;;;;;;2.20;1.00;;;20.10;1.00;;;;;;10476509;28;20207;-76
2022/09/04 16:43:10;;;;;;;1.45;0.88;;;20.00;1.00;;;;;;10478426;28;20224;-76
2022/09/04 16:48:46;;;;;;;4.65;3.17;;;19.90;1.00;;;;;;10483452;28;20260;-80
2022/09/04 16:54:36;;;;;;;6.57;3.67;;;19.60;1.00;;;;;;10504745;28;20199;-80
2022/09/04 17:00:13;;;;;;;8.05;4.10;;;19.50;1.00;;;;;;10524539;28;20218;-80
2022/09/04 17:05:48;;;;;;;7.32;2.03;;;19.40;1.00;;;;;;10524345;28;20221;-76
2022/09/04 17:11:28;;;;;;;2.20;1.50;;;19.10;1.00;;;;;;10540988;28;20270;-76
2022/09/04 17:17:02;;;;;;;7.25;3.00;;;19.00;1.00;;;;;;10522873;28;20199;-77
2022/09/04 17:22:32;;;;;;;4.57;3.55;;;;;;;;;;10516020;28;20223;-80
2022/09/04 17:28:12;;;;;;;10.80;7.28;;;18.80;1.00;;;;;;10481333;28;20230;-77
2022/09/04 17:33:41;;;;;;;11.75;7.13;;;18.60;1.00;;;;;;10481683;28;20263;-81
2022/09/04 17:39:16;;;;;;;7.90;5.18;;;;;;;;;;10481659;28;20191;-77
2022/09/04 17:44:45;;;;;;;4.55;2.88;;;18.40;99.90;;;;;;10481006;28;20227;-76
2022/09/04 17:50:24;;;;;;;4.68;2.78;;;18.30;99.90;;;;;;10466161;28;20470;-77
2022/09/04 17:55:46;;;;;;;5.43;2.75;;;18.10;1.00;;;;;;10514186;28;20225;-76
2022/09/04 18:01:15;;;;;;;5.65;2.88;;;18.00;99.90;;;;;;10522123;28;20249;-76
2022/09/04 18:06:45;;;;;;;8.82;2.97;;;18.00;99.90;;;;;;10521176;28;20195;-77
2022/09/04 18:12:30;;;;;;;8.00;3.63;;;17.90;99.90;;;;;;10516393;28;20241;-78
2022/09/04 18:17:59;;;;;;;5.78;3.50;;;17.80;99.90;;;;;;10407279;28;20333;-76
2022/09/04 18:23:21;;;;;;;5.45;3.70;;;17.70;99.90;;;;;;10434716;28;20239;-83
2022/09/04 18:29:10;;;;;;;6.07;3.30;;;17.60;53.30;;;;;;10420666;28;20212;-82
2022/09/04 18:34:46;;;;;;;5.63;3.45;;;17.50;44.10;;;;;;10417887;28;20255;-80
2022/09/04 18:40:21;;;;;;;4.78;3.33;;;17.30;47.70;;;;;;10420653;28;20211;-76
2022/09/04 18:45:54;;;;;;;7.30;3.70;;;17.20;50.60;;;;;;10420016;28;20399;-76
2022/09/04 18:51:23;;;;;;;6.60;3.83;;;17.10;54.60;;;;;;10424661;28;20295;-76
2022/09/04 18:56:51;;;;;;;4.68;2.95;;;17.00;61.30;;;;;;10477845;28;20257;-75
2022/09/04 19:02:27;;;;;;;5.57;3.22;;;16.80;65.40;;;;;;10509074;28;20404;-75
2022/09/04 19:08:01;;;;;;;6.43;3.58;;;16.70;71.00;;;;;;10526907;28;20189;-75
2022/09/04 19:13:43;;;;;;;9.63;4.28;;;16.60;76.50;;;;;;10519748;28;20206;-74
2022/09/04 19:19:16;;;;;;;6.22;3.80;;;16.60;79.70;;;;;;10504379;28;20447;-74
2022/09/04 19:24:47;;;;;;;6.75;3.70;;;16.40;83.70;;;;;;10492709;28;20243;-74
2022/09/04 19:30:17;;;;;;;6.72;3.50;;;16.40;88.30;;;;;;10477602;28;20510;-74
2022/09/04 19:35:55;;;;;;;4.22;3.20;;;16.40;90.00;;;;;;10477760;28;20196;-75
2022/09/04 19:41:40;;;;;;;4.43;2.97;;;16.30;91.80;;;;;;10477309;28;20289;-74
2022/09/04 19:47:02;;;;;;;6.50;3.45;;;16.20;93.50;;;;;;10476354;28;20201;-75
2022/09/04 19:52:37;;;;;;;5.35;3.85;;;16.10;95.10;;;;;;10468793;28;20197;-74
2022/09/04 19:58:07;;;;;;;6.70;3.90;;;16.00;95.90;;;;;;10517532;28;20198;-78
2022/09/04 20:03:35;;;;;;;8.80;4.30;;;15.90;97.30;;;;;;10518513;28;20226;-74
2022/09/04 20:09:34;;;;;;;8.25;4.07;;;15.90;99.00;;;;;;10535540;28;20194;-76
2022/09/04 20:14:56;;;;;;;5.00;3.00;;;15.90;99.10;;;;;;10523369;28;20192;-77
2022/09/04 20:20:23;;;;;;;5.20;2.80;;;15.90;99.30;;;;;;10511190;28;20268;-79
2022/09/04 20:26:23;;;;;;;2.53;1.75;;;15.70;99.90;;;;;;10491090;28;20435;-77
2022/09/04 20:32:20;;;;;;;2.95;1.60;;;15.70;99.90;;;;;;10382055;28;20222;-80
2022/09/04 20:37:50;;;;;;;2.80;1.27;;;15.70;99.90;;;;;;10398133;28;20503;-76
2022/09/04 20:43:23;;;;;;;3.90;1.40;;;15.70;99.90;;;;;;10367993;28;20243;-81
2022/09/04 20:49:23;;;;;;;2.35;1.50;;;15.70;99.90;;;;;;10393283;28;20208;-78
2022/09/04 20:55:08;;;;;;;2.95;1.77;;;15.70;99.90;;;;;;10397480;28;20208;-76
2022/09/04 21:00:36;;;;;;;5.95;1.63;;;15.60;99.90;;;;;;10380772;28;20503;-77
2022/09/04 21:06:07;;;;;;;3.13;1.35;;;15.60;99.90;;;;;;10472091;28;20396;-77
2022/09/04 21:11:40;;;;;;;3.35;1.27;;;15.50;99.90;;;;;;10557134;28;20192;-77
2022/09/04 21:17:24;;;;;;;2.47;1.35;;;15.50;99.90;;;;;;10523198;28;20572;-76
2022/09/04 21:23:11;;;;;;;1.48;1.25;;;15.40;99.90;;;;;;10514120;28;20224;-76
2022/09/04 21:28:44;;;;;;;3.55;1.30;;;15.40;99.90;;;;;;10481450;28;20233;-76
2022/09/04 21:34:31;;;;;;;2.05;1.20;;;15.30;99.90;;;;;;10481328;28;20218;-76
2022/09/04 21:40:34;;;;;;;1.35;1.10;;;15.20;99.90;;;;;;10481881;28;20208;-82
2022/09/04 21:45:56;;;;;;;2.03;1.50;;;;;;;;;;10395795;28;20219;-79
2022/09/04 21:51:20;;;;;;;3.70;1.90;;;15.10;99.90;;;;;;10378938;28;20204;-78
2022/09/04 21:56:51;;;;;;;2.15;1.50;;;15.10;99.90;;;;;;10381457;28;20413;-76
2022/09/04 22:02:14;;;;;;;2.22;1.20;;;;;;;;;;10394769;28;20483;-76
2022/09/04 22:07:42;;;;;;;3.40;1.60;;;;;;;;;;10381006;28;20223;-76
2022/09/04 22:13:44;;;;;;;3.22;1.70;;;;;;;;;;10394485;28;20508;-76
2022/09/04 22:19:46;;;;;;;1.73;1.23;;;14.80;99.90;;;;;;10342305;28;20347;-76
2022/09/04 22:25:11;;;;;;;1.98;1.40;;;;;;;;;;10393888;28;20235;-81
2022/09/04 22:30:52;;;;;;;1.40;1.20;;;;;;;;;;10394334;28;20238;-78
2022/09/04 22:36:32;;;;;;;2.00;1.42;;;;;;;;;;10377399;28;20448;-76
2022/09/04 22:41:57;;;;;;;2.60;1.85;;;;;;;;;;10392537;28;20235;-77
2022/09/04 22:47:33;;;;;;;1.40;1.10;;;;;;;;;;10372341;28;20219;-76
2022/09/04 22:53:13;;;;;;;1.65;1.40;;;;;;;;;;10403493;28;20233;-81
2022/09/04 22:58:54;;;;;;;3.90;1.58;;;;;;;;;;10519209;28;20385;-81
2022/09/04 23:04:27;;;;;;;1.50;1.10;;;;;;;;;;10519728;28;20229;-81
2022/09/04 23:10:08;;;;;;;3.25;1.38;;;;;;;;;;10543306;28;20221;-80
2022/09/04 23:15:38;;;;;;;3.67;1.35;;;;;;;;;;10539979;28;20278;-80
2022/09/04 23:21:05;;;;;;;1.20;1.10;;;;;;;;;;10518710;28;20218;-80
2022/09/04 23:26:36;;;;;;;2.30;1.52;;;;;;;;;;10490701;28;20240;-78
2022/09/04 23:32:27;;;;;;;1.58;1.35;;;;;;;;;;10477849;28;20200;-77
2022/09/04 23:38:07;;;;;;;1.83;1.30;;;;;;;;;;10477741;28;20264;-76
2022/09/04 23:43:28;;;;;;;1.10;0.95;;;;;;;;;;10477521;28;20228;-78
2022/09/04 23:49:02;;;;;;;2.00;1.17;;;;;;;;;;10476457;28;20203;-78
2022/09/04 23:54:42;;;;;;;2.10;1.13;;;;;;;;;;10493451;28;20230;-74
